sensor_id;sensor_type;location;lat;lon;timestamp;temperature;humidity
51719;DHT22;37795;53.236;5.704;2023-03-04T00:01:58;5.90;71.80
51719;DHT22;37795;53.236;5.704;2023-03-04T00:04:24;5.90;71.80
51719;DHT22;37795;53.236;5.704;2023-03-04T00:06:50;5.90;71.80
51719;DHT22;37795;53.236;5.704;2023-03-04T00:09:16;5.90;71.70
51719;DHT22;37795;53.236;5.704;2023-03-04T00:11:41;5.90;71.80
51719;DHT22;37795;53.236;5.704;2023-03-04T00:14:07;5.90;72.10
51719;DHT22;37795;53.236;5.704;2023-03-04T00:16:33;5.90;72.20
51719;DHT22;37795;53.236;5.704;2023-03-04T00:18:58;5.90;72.30
51719;DHT22;37795;53.236;5.704;2023-03-04T00:21:24;5.90;72.30
51719;DHT22;37795;53.236;5.704;2023-03-04T00:23:50;5.90;72.50
51719;DHT22;37795;53.236;5.704;2023-03-04T00:26:17;5.90;72.60
51719;DHT22;37795;53.236;5.704;2023-03-04T00:28:43;5.90;72.60
51719;DHT22;37795;53.236;5.704;2023-03-04T00:31:08;5.90;72.80
51719;DHT22;37795;53.236;5.704;2023-03-04T00:33:34;5.90;72.90
51719;DHT22;37795;53.236;5.704;2023-03-04T00:36:01;5.90;73.00
51719;DHT22;37795;53.236;5.704;2023-03-04T00:38:27;5.90;72.30
51719;DHT22;37795;53.236;5.704;2023-03-04T00:40:53;5.90;71.90
51719;DHT22;37795;53.236;5.704;2023-03-04T00:43:18;5.90;71.80
51719;DHT22;37795;53.236;5.704;2023-03-04T00:45:44;5.90;71.80
51719;DHT22;37795;53.236;5.704;2023-03-04T00:48:10;5.90;71.70
51719;DHT22;37795;53.236;5.704;2023-03-04T00:50:36;5.90;71.70
51719;DHT22;37795;53.236;5.704;2023-03-04T00:53:02;5.90;71.70
51719;DHT22;37795;53.236;5.704;2023-03-04T00:55:28;5.90;71.80
51719;DHT22;37795;53.236;5.704;2023-03-04T00:57:54;5.90;71.90
51719;DHT22;37795;53.236;5.704;2023-03-04T01:00:20;5.80;72.00
51719;DHT22;37795;53.236;5.704;2023-03-04T01:02:46;5.80;72.10
51719;DHT22;37795;53.236;5.704;2023-03-04T01:05:12;5.80;72.30
51719;DHT22;37795;53.236;5.704;2023-03-04T01:07:38;5.90;72.60
51719;DHT22;37795;53.236;5.704;2023-03-04T01:10:05;5.80;72.70
51719;DHT22;37795;53.236;5.704;2023-03-04T01:12:31;5.80;73.00
51719;DHT22;37795;53.236;5.704;2023-03-04T01:14:57;5.90;73.20
51719;DHT22;37795;53.236;5.704;2023-03-04T01:17:22;5.90;73.40
51719;DHT22;37795;53.236;5.704;2023-03-04T01:19:48;5.80;73.40
51719;DHT22;37795;53.236;5.704;2023-03-04T01:22:14;5.80;73.00
51719;DHT22;37795;53.236;5.704;2023-03-04T01:24:41;5.80;72.30
51719;DHT22;37795;53.236;5.704;2023-03-04T01:27:07;5.80;71.90
51719;DHT22;37795;53.236;5.704;2023-03-04T01:29:33;5.80;71.60
51719;DHT22;37795;53.236;5.704;2023-03-04T01:31:59;5.80;71.60
51719;DHT22;37795;53.236;5.704;2023-03-04T01:34:24;5.80;71.50
51719;DHT22;37795;53.236;5.704;2023-03-04T01:36:50;5.80;71.50
51719;DHT22;37795;53.236;5.704;2023-03-04T01:39:16;5.80;71.60
51719;DHT22;37795;53.236;5.704;2023-03-04T01:41:41;5.80;71.60
51719;DHT22;37795;53.236;5.704;2023-03-04T01:44:08;5.80;71.80
51719;DHT22;37795;53.236;5.704;2023-03-04T01:46:35;5.80;72.10
51719;DHT22;37795;53.236;5.704;2023-03-04T01:49:01;5.80;72.30
51719;DHT22;37795;53.236;5.704;2023-03-04T01:51:27;5.80;72.50
51719;DHT22;37795;53.236;5.704;2023-03-04T01:53:53;5.80;72.50
51719;DHT22;37795;53.236;5.704;2023-03-04T01:56:33;5.80;72.60
51719;DHT22;37795;53.236;5.704;2023-03-04T02:01:45;5.80;72.60
51719;DHT22;37795;53.236;5.704;2023-03-04T02:04:11;5.80;73.00
51719;DHT22;37795;53.236;5.704;2023-03-04T02:06:39;5.80;73.20
51719;DHT22;37795;53.236;5.704;2023-03-04T02:09:06;5.80;73.50
51719;DHT22;37795;53.236;5.704;2023-03-04T02:11:33;5.80;73.60
51719;DHT22;37795;53.236;5.704;2023-03-04T02:13:58;5.80;73.60
51719;DHT22;37795;53.236;5.704;2023-03-04T02:16:24;5.80;73.40
51719;DHT22;37795;53.236;5.704;2023-03-04T02:18:50;5.80;73.40
51719;DHT22;37795;53.236;5.704;2023-03-04T02:21:28;5.80;73.40
51719;DHT22;37795;53.236;5.704;2023-03-04T02:26:32;5.80;73.30
51719;DHT22;37795;53.236;5.704;2023-03-04T02:29:00;5.80;73.10
51719;DHT22;37795;53.236;5.704;2023-03-04T02:31:29;5.80;73.10
51719;DHT22;37795;53.236;5.704;2023-03-04T02:34:00;5.80;72.90
51719;DHT22;37795;53.236;5.704;2023-03-04T02:36:27;5.80;72.80
51719;DHT22;37795;53.236;5.704;2023-03-04T02:38:53;5.80;72.70
51719;DHT22;37795;53.236;5.704;2023-03-04T02:41:22;5.80;72.80
51719;DHT22;37795;53.236;5.704;2023-03-04T02:43:51;5.80;72.70
51719;DHT22;37795;53.236;5.704;2023-03-04T02:46:17;5.80;72.80
51719;DHT22;37795;53.236;5.704;2023-03-04T02:48:43;5.80;72.90
51719;DHT22;37795;53.236;5.704;2023-03-04T02:51:08;5.80;73.10
51719;DHT22;37795;53.236;5.704;2023-03-04T02:53:34;5.80;73.10
51719;DHT22;37795;53.236;5.704;2023-03-04T02:56:00;5.80;73.40
51719;DHT22;37795;53.236;5.704;2023-03-04T02:58:25;5.80;73.50
51719;DHT22;37795;53.236;5.704;2023-03-04T03:00:51;5.80;73.60
51719;DHT22;37795;53.236;5.704;2023-03-04T03:03:17;5.90;73.90
51719;DHT22;37795;53.236;5.704;2023-03-04T03:05:43;5.90;74.00
51719;DHT22;37795;53.236;5.704;2023-03-04T03:08:08;5.90;74.20
51719;DHT22;37795;53.236;5.704;2023-03-04T03:10:34;5.90;74.30
51719;DHT22;37795;53.236;5.704;2023-03-04T03:13:00;5.90;74.50
51719;DHT22;37795;53.236;5.704;2023-03-04T03:15:26;5.90;74.60
51719;DHT22;37795;53.236;5.704;2023-03-04T03:17:52;5.90;74.70
51719;DHT22;37795;53.236;5.704;2023-03-04T03:20:18;5.90;74.80
51719;DHT22;37795;53.236;5.704;2023-03-04T03:22:45;5.80;74.60
51719;DHT22;37795;53.236;5.704;2023-03-04T03:25:12;5.80;74.50
51719;DHT22;37795;53.236;5.704;2023-03-04T03:27:38;5.80;74.30
51719;DHT22;37795;53.236;5.704;2023-03-04T03:30:06;5.90;74.20
51719;DHT22;37795;53.236;5.704;2023-03-04T03:32:32;5.90;74.20
51719;DHT22;37795;53.236;5.704;2023-03-04T03:34:58;5.90;74.10
51719;DHT22;37795;53.236;5.704;2023-03-04T03:37:23;5.90;74.20
51719;DHT22;37795;53.236;5.704;2023-03-04T03:39:49;5.90;74.10
51719;DHT22;37795;53.236;5.704;2023-03-04T03:42:15;5.90;74.20
51719;DHT22;37795;53.236;5.704;2023-03-04T03:44:40;5.90;74.30
51719;DHT22;37795;53.236;5.704;2023-03-04T03:47:06;5.90;74.40
51719;DHT22;37795;53.236;5.704;2023-03-04T03:49:32;5.90;74.40
51719;DHT22;37795;53.236;5.704;2023-03-04T03:51:57;5.90;74.50
51719;DHT22;37795;53.236;5.704;2023-03-04T03:54:23;5.90;74.70
51719;DHT22;37795;53.236;5.704;2023-03-04T03:56:49;5.90;74.70
51719;DHT22;37795;53.236;5.704;2023-03-04T03:59:14;5.90;74.50
51719;DHT22;37795;53.236;5.704;2023-03-04T04:01:40;5.90;74.70
51719;DHT22;37795;53.236;5.704;2023-03-04T04:04:06;6.00;74.60
51719;DHT22;37795;53.236;5.704;2023-03-04T04:06:32;6.00;74.70
51719;DHT22;37795;53.236;5.704;2023-03-04T04:08:57;5.90;74.90
51719;DHT22;37795;53.236;5.704;2023-03-04T04:11:23;5.90;75.00
51719;DHT22;37795;53.236;5.704;2023-03-04T04:13:49;6.00;75.20
51719;DHT22;37795;53.236;5.704;2023-03-04T04:16:14;5.90;75.20
51719;DHT22;37795;53.236;5.704;2023-03-04T04:18:40;5.90;75.50
51719;DHT22;37795;53.236;5.704;2023-03-04T04:21:06;5.90;75.50
51719;DHT22;37795;53.236;5.704;2023-03-04T04:23:31;5.90;75.60
51719;DHT22;37795;53.236;5.704;2023-03-04T04:25:57;5.90;75.60
51719;DHT22;37795;53.236;5.704;2023-03-04T04:28:23;6.00;75.50
51719;DHT22;37795;53.236;5.704;2023-03-04T04:30:49;5.90;75.50
51719;DHT22;37795;53.236;5.704;2023-03-04T04:33:15;5.90;75.50
51719;DHT22;37795;53.236;5.704;2023-03-04T04:35:41;5.90;75.40
51719;DHT22;37795;53.236;5.704;2023-03-04T04:38:08;5.90;75.50
51719;DHT22;37795;53.236;5.704;2023-03-04T04:40:34;5.90;75.50
51719;DHT22;37795;53.236;5.704;2023-03-04T04:42:59;5.90;75.30
51719;DHT22;37795;53.236;5.704;2023-03-04T04:45:25;5.90;75.40
51719;DHT22;37795;53.236;5.704;2023-03-04T04:47:52;5.90;75.50
51719;DHT22;37795;53.236;5.704;2023-03-04T04:50:18;5.90;76.10
51719;DHT22;37795;53.236;5.704;2023-03-04T04:52:44;5.90;76.70
51719;DHT22;37795;53.236;5.704;2023-03-04T04:55:09;5.90;77.10
51719;DHT22;37795;53.236;5.704;2023-03-04T04:57:36;5.90;77.50
51719;DHT22;37795;53.236;5.704;2023-03-04T05:00:04;5.80;77.70
51719;DHT22;37795;53.236;5.704;2023-03-04T05:02:30;5.80;77.80
51719;DHT22;37795;53.236;5.704;2023-03-04T05:04:55;5.80;77.90
51719;DHT22;37795;53.236;5.704;2023-03-04T05:07:21;5.80;77.90
51719;DHT22;37795;53.236;5.704;2023-03-04T05:09:47;5.80;78.10
51719;DHT22;37795;53.236;5.704;2023-03-04T05:12:13;5.80;78.00
51719;DHT22;37795;53.236;5.704;2023-03-04T05:14:38;5.80;78.20
51719;DHT22;37795;53.236;5.704;2023-03-04T05:17:04;5.80;78.30
51719;DHT22;37795;53.236;5.704;2023-03-04T05:19:30;5.80;78.50
51719;DHT22;37795;53.236;5.704;2023-03-04T05:21:55;5.80;78.60
51719;DHT22;37795;53.236;5.704;2023-03-04T05:24:21;5.80;78.50
51719;DHT22;37795;53.236;5.704;2023-03-04T05:26:47;5.80;78.50
51719;DHT22;37795;53.236;5.704;2023-03-04T05:29:13;5.80;78.60
51719;DHT22;37795;53.236;5.704;2023-03-04T05:31:38;5.80;78.70
51719;DHT22;37795;53.236;5.704;2023-03-04T05:34:04;5.80;78.70
51719;DHT22;37795;53.236;5.704;2023-03-04T05:36:30;5.90;78.70
51719;DHT22;37795;53.236;5.704;2023-03-04T05:38:56;5.90;78.70
51719;DHT22;37795;53.236;5.704;2023-03-04T05:41:21;5.90;78.80
51719;DHT22;37795;53.236;5.704;2023-03-04T05:43:48;5.80;78.80
51719;DHT22;37795;53.236;5.704;2023-03-04T05:46:16;5.80;78.70
51719;DHT22;37795;53.236;5.704;2023-03-04T05:48:42;5.80;78.90
51719;DHT22;37795;53.236;5.704;2023-03-04T05:51:08;5.90;79.00
51719;DHT22;37795;53.236;5.704;2023-03-04T05:53:35;5.90;78.90
51719;DHT22;37795;53.236;5.704;2023-03-04T05:56:13;5.80;79.10
51719;DHT22;37795;53.236;5.704;2023-03-04T05:58:39;5.80;79.20
51719;DHT22;37795;53.236;5.704;2023-03-04T06:01:05;5.80;79.20
51719;DHT22;37795;53.236;5.704;2023-03-04T06:03:32;5.80;79.10
51719;DHT22;37795;53.236;5.704;2023-03-04T06:05:58;5.80;79.00
51719;DHT22;37795;53.236;5.704;2023-03-04T06:08:24;5.80;78.80
51719;DHT22;37795;53.236;5.704;2023-03-04T06:10:54;5.90;78.50
51719;DHT22;37795;53.236;5.704;2023-03-04T06:13:21;5.90;78.10
51719;DHT22;37795;53.236;5.704;2023-03-04T06:15:56;5.90;78.20
51719;DHT22;37795;53.236;5.704;2023-03-04T06:18:23;5.90;78.10
51719;DHT22;37795;53.236;5.704;2023-03-04T06:20:49;5.90;78.20
51719;DHT22;37795;53.236;5.704;2023-03-04T06:23:15;5.90;78.30
51719;DHT22;37795;53.236;5.704;2023-03-04T06:25:41;5.80;78.60
51719;DHT22;37795;53.236;5.704;2023-03-04T06:28:07;5.80;79.10
51719;DHT22;37795;53.236;5.704;2023-03-04T06:30:33;5.80;79.50
51719;DHT22;37795;53.236;5.704;2023-03-04T06:32:58;5.80;80.00
51719;DHT22;37795;53.236;5.704;2023-03-04T06:35:24;5.80;80.10
51719;DHT22;37795;53.236;5.704;2023-03-04T06:37:50;5.80;80.20
51719;DHT22;37795;53.236;5.704;2023-03-04T06:40:15;5.80;80.30
51719;DHT22;37795;53.236;5.704;2023-03-04T06:42:42;5.80;80.40
51719;DHT22;37795;53.236;5.704;2023-03-04T06:45:08;5.80;80.40
51719;DHT22;37795;53.236;5.704;2023-03-04T06:47:34;5.80;80.60
51719;DHT22;37795;53.236;5.704;2023-03-04T06:50:00;5.80;80.70
51719;DHT22;37795;53.236;5.704;2023-03-04T06:57:32;6.10;80.50
51719;DHT22;37795;53.236;5.704;2023-03-04T06:59:58;5.80;80.60
51719;DHT22;37795;53.236;5.704;2023-03-04T07:02:24;5.90;80.40
51719;DHT22;37795;53.236;5.704;2023-03-04T07:04:50;5.90;80.20
51719;DHT22;37795;53.236;5.704;2023-03-04T07:07:15;5.90;80.30
51719;DHT22;37795;53.236;5.704;2023-03-04T07:09:41;6.00;80.10
51719;DHT22;37795;53.236;5.704;2023-03-04T07:12:07;6.00;79.80
51719;DHT22;37795;53.236;5.704;2023-03-04T07:14:32;6.00;79.90
51719;DHT22;37795;53.236;5.704;2023-03-04T07:16:58;6.00;79.90
51719;DHT22;37795;53.236;5.704;2023-03-04T07:19:24;6.00;80.10
51719;DHT22;37795;53.236;5.704;2023-03-04T07:21:50;6.00;80.30
51719;DHT22;37795;53.236;5.704;2023-03-04T07:24:15;6.00;80.60
51719;DHT22;37795;53.236;5.704;2023-03-04T07:26:41;6.00;80.80
51719;DHT22;37795;53.236;5.704;2023-03-04T07:29:07;6.00;81.00
51719;DHT22;37795;53.236;5.704;2023-03-04T07:31:33;6.00;81.20
51719;DHT22;37795;53.236;5.704;2023-03-04T07:34:02;6.00;81.30
51719;DHT22;37795;53.236;5.704;2023-03-04T07:36:28;6.00;81.50
51719;DHT22;37795;53.236;5.704;2023-03-04T07:38:54;6.00;81.60
51719;DHT22;37795;53.236;5.704;2023-03-04T07:41:21;6.00;81.70
51719;DHT22;37795;53.236;5.704;2023-03-04T07:43:47;6.00;81.60
51719;DHT22;37795;53.236;5.704;2023-03-04T07:46:13;5.90;81.60
51719;DHT22;37795;53.236;5.704;2023-03-04T07:48:39;6.00;81.70
51719;DHT22;37795;53.236;5.704;2023-03-04T07:51:14;6.00;81.50
51719;DHT22;37795;53.236;5.704;2023-03-04T07:53:43;6.10;81.50
51719;DHT22;37795;53.236;5.704;2023-03-04T07:56:15;6.10;81.40
51719;DHT22;37795;53.236;5.704;2023-03-04T07:58:42;6.20;81.10
51719;DHT22;37795;53.236;5.704;2023-03-04T08:01:20;6.20;81.10
51719;DHT22;37795;53.236;5.704;2023-03-04T08:03:46;6.30;80.80
51719;DHT22;37795;53.236;5.704;2023-03-04T08:06:13;6.30;80.60
51719;DHT22;37795;53.236;5.704;2023-03-04T08:08:40;6.30;80.50
51719;DHT22;37795;53.236;5.704;2023-03-04T08:11:13;6.30;80.40
51719;DHT22;37795;53.236;5.704;2023-03-04T08:13:39;6.30;80.10
51719;DHT22;37795;53.236;5.704;2023-03-04T08:16:05;6.30;79.70
51719;DHT22;37795;53.236;5.704;2023-03-04T08:18:31;6.30;79.40
51719;DHT22;37795;53.236;5.704;2023-03-04T08:20:57;6.30;79.20
51719;DHT22;37795;53.236;5.704;2023-03-04T08:23:23;6.30;78.90
51719;DHT22;37795;53.236;5.704;2023-03-04T08:25:48;6.40;78.60
51719;DHT22;37795;53.236;5.704;2023-03-04T08:28:14;6.40;78.40
51719;DHT22;37795;53.236;5.704;2023-03-04T08:30:40;6.50;78.40
51719;DHT22;37795;53.236;5.704;2023-03-04T08:33:07;6.50;78.30
51719;DHT22;37795;53.236;5.704;2023-03-04T08:35:36;6.40;78.30
51719;DHT22;37795;53.236;5.704;2023-03-04T08:38:02;6.40;77.60
51719;DHT22;37795;53.236;5.704;2023-03-04T08:40:27;6.40;77.70
51719;DHT22;37795;53.236;5.704;2023-03-04T08:42:55;6.50;77.70
51719;DHT22;37795;53.236;5.704;2023-03-04T08:45:21;6.50;77.70
51719;DHT22;37795;53.236;5.704;2023-03-04T08:47:47;6.60;77.60
51719;DHT22;37795;53.236;5.704;2023-03-04T08:50:12;6.60;77.60
51719;DHT22;37795;53.236;5.704;2023-03-04T08:52:38;6.50;77.40
51719;DHT22;37795;53.236;5.704;2023-03-04T08:55:04;6.50;77.60
51719;DHT22;37795;53.236;5.704;2023-03-04T08:57:30;6.40;77.80
51719;DHT22;37795;53.236;5.704;2023-03-04T08:59:55;6.50;78.00
51719;DHT22;37795;53.236;5.704;2023-03-04T09:02:21;6.50;78.00
51719;DHT22;37795;53.236;5.704;2023-03-04T09:04:47;6.50;78.00
51719;DHT22;37795;53.236;5.704;2023-03-04T09:07:12;6.50;78.20
51719;DHT22;37795;53.236;5.704;2023-03-04T09:09:39;6.50;78.20
51719;DHT22;37795;53.236;5.704;2023-03-04T09:12:05;6.50;78.10
51719;DHT22;37795;53.236;5.704;2023-03-04T09:14:30;6.50;77.90
51719;DHT22;37795;53.236;5.704;2023-03-04T09:16:57;6.60;77.70
51719;DHT22;37795;53.236;5.704;2023-03-04T09:19:23;6.50;77.40
51719;DHT22;37795;53.236;5.704;2023-03-04T09:21:49;6.50;77.00
51719;DHT22;37795;53.236;5.704;2023-03-04T09:24:14;6.50;76.50
51719;DHT22;37795;53.236;5.704;2023-03-04T09:26:40;6.50;76.40
51719;DHT22;37795;53.236;5.704;2023-03-04T09:29:06;6.50;76.30
51719;DHT22;37795;53.236;5.704;2023-03-04T09:31:32;6.50;76.00
51719;DHT22;37795;53.236;5.704;2023-03-04T09:33:58;6.60;75.90
51719;DHT22;37795;53.236;5.704;2023-03-04T09:36:24;6.60;75.90
51719;DHT22;37795;53.236;5.704;2023-03-04T09:38:50;6.60;75.80
51719;DHT22;37795;53.236;5.704;2023-03-04T09:41:19;6.60;75.80
51719;DHT22;37795;53.236;5.704;2023-03-04T09:43:47;6.60;75.70
51719;DHT22;37795;53.236;5.704;2023-03-04T09:46:22;6.70;75.30
51719;DHT22;37795;53.236;5.704;2023-03-04T09:48:51;6.70;75.20
51719;DHT22;37795;53.236;5.704;2023-03-04T09:54:17;6.70;73.80
51719;DHT22;37795;53.236;5.704;2023-03-04T09:56:45;6.80;73.50
51719;DHT22;37795;53.236;5.704;2023-03-04T09:59:24;6.80;73.50
51719;DHT22;37795;53.236;5.704;2023-03-04T10:01:55;6.80;73.50
51719;DHT22;37795;53.236;5.704;2023-03-04T10:04:52;6.80;73.50
51719;DHT22;37795;53.236;5.704;2023-03-04T10:07:27;6.70;74.00
51719;DHT22;37795;53.236;5.704;2023-03-04T10:10:31;6.80;74.50
51719;DHT22;37795;53.236;5.704;2023-03-04T10:12:59;6.80;74.70
51719;DHT22;37795;53.236;5.704;2023-03-04T10:15:44;6.90;74.80
51719;DHT22;37795;53.236;5.704;2023-03-04T10:18:26;7.00;74.80
51719;DHT22;37795;53.236;5.704;2023-03-04T10:20:56;7.30;74.60
51719;DHT22;37795;53.236;5.704;2023-03-04T10:23:27;7.20;73.80
51719;DHT22;37795;53.236;5.704;2023-03-04T10:25:54;7.30;73.90
51719;DHT22;37795;53.236;5.704;2023-03-04T10:28:27;7.30;73.90
51719;DHT22;37795;53.236;5.704;2023-03-04T10:33:41;7.20;73.30
51719;DHT22;37795;53.236;5.704;2023-03-04T10:39:04;7.20;73.10
51719;DHT22;37795;53.236;5.704;2023-03-04T10:41:31;7.20;72.80
51719;DHT22;37795;53.236;5.704;2023-03-04T10:46:29;7.40;71.90
51719;DHT22;37795;53.236;5.704;2023-03-04T10:48:55;7.50;72.10
51719;DHT22;37795;53.236;5.704;2023-03-04T10:57:35;8.00;70.10
51719;DHT22;37795;53.236;5.704;2023-03-04T11:02:44;7.70;70.00
51719;DHT22;37795;53.236;5.704;2023-03-04T11:05:24;7.60;70.10
51719;DHT22;37795;53.236;5.704;2023-03-04T11:07:54;7.50;70.20
51719;DHT22;37795;53.236;5.704;2023-03-04T11:10:22;7.40;70.50
51719;DHT22;37795;53.236;5.704;2023-03-04T11:12:50;7.40;71.00
51719;DHT22;37795;53.236;5.704;2023-03-04T11:15:18;7.40;71.10
51719;DHT22;37795;53.236;5.704;2023-03-04T11:17:49;7.50;71.20
51719;DHT22;37795;53.236;5.704;2023-03-04T11:20:32;7.50;70.90
51719;DHT22;37795;53.236;5.704;2023-03-04T11:23:10;7.60;71.10
51719;DHT22;37795;53.236;5.704;2023-03-04T11:25:41;7.60;71.00
51719;DHT22;37795;53.236;5.704;2023-03-04T11:28:22;7.50;70.70
51719;DHT22;37795;53.236;5.704;2023-03-04T11:30:59;7.60;71.00
51719;DHT22;37795;53.236;5.704;2023-03-04T11:33:40;7.50;70.30
51719;DHT22;37795;53.236;5.704;2023-03-04T11:38:49;7.70;69.50
51719;DHT22;37795;53.236;5.704;2023-03-04T11:41:31;7.80;68.90
51719;DHT22;37795;53.236;5.704;2023-03-04T11:44:00;7.80;68.40
51719;DHT22;37795;53.236;5.704;2023-03-04T11:54:59;7.80;68.50
51719;DHT22;37795;53.236;5.704;2023-03-04T12:00:42;7.80;68.50
51719;DHT22;37795;53.236;5.704;2023-03-04T12:06:11;7.90;68.00
51719;DHT22;37795;53.236;5.704;2023-03-04T12:35:40;8.00;65.60
51719;DHT22;37795;53.236;5.704;2023-03-04T12:38:16;8.10;66.50
51719;DHT22;37795;53.236;5.704;2023-03-04T12:43:40;8.10;65.40
51719;DHT22;37795;53.236;5.704;2023-03-04T12:54:49;8.30;66.00
51719;DHT22;37795;53.236;5.704;2023-03-04T12:57:23;8.40;66.00
51719;DHT22;37795;53.236;5.704;2023-03-04T12:59:51;8.70;66.00
51719;DHT22;37795;53.236;5.704;2023-03-04T13:10:31;9.00;64.50
51719;DHT22;37795;53.236;5.704;2023-03-04T13:12:59;8.90;64.50
51719;DHT22;37795;53.236;5.704;2023-03-04T13:15:35;8.80;64.60
51719;DHT22;37795;53.236;5.704;2023-03-04T13:18:31;8.60;65.20
51719;DHT22;37795;53.236;5.704;2023-03-04T13:23:38;8.40;66.30
51719;DHT22;37795;53.236;5.704;2023-03-04T13:26:27;8.30;66.50
51719;DHT22;37795;53.236;5.704;2023-03-04T13:32:01;8.10;67.80
51719;DHT22;37795;53.236;5.704;2023-03-04T13:34:49;8.00;68.40
51719;DHT22;37795;53.236;5.704;2023-03-04T13:37:36;8.00;69.00
51719;DHT22;37795;53.236;5.704;2023-03-04T13:42:49;7.90;69.40
51719;DHT22;37795;53.236;5.704;2023-03-04T13:45:34;7.90;69.30
51719;DHT22;37795;53.236;5.704;2023-03-04T13:48:01;7.80;69.00
51719;DHT22;37795;53.236;5.704;2023-03-04T13:50:37;7.90;69.20
51719;DHT22;37795;53.236;5.704;2023-03-04T13:58:37;8.10;67.60
51719;DHT22;37795;53.236;5.704;2023-03-04T14:01:03;8.10;67.80
51719;DHT22;37795;53.236;5.704;2023-03-04T14:03:31;8.10;67.60
51719;DHT22;37795;53.236;5.704;2023-03-04T14:06:31;8.30;67.60
51719;DHT22;37795;53.236;5.704;2023-03-04T14:08:57;8.80;66.70
51719;DHT22;37795;53.236;5.704;2023-03-04T14:11:35;9.20;66.20
51719;DHT22;37795;53.236;5.704;2023-03-04T14:14:15;9.20;65.50
51719;DHT22;37795;53.236;5.704;2023-03-04T14:16:57;9.10;64.90
51719;DHT22;37795;53.236;5.704;2023-03-04T14:21:51;8.60;65.90
51719;DHT22;37795;53.236;5.704;2023-03-04T14:24:19;8.40;65.90
51719;DHT22;37795;53.236;5.704;2023-03-04T14:26:46;8.30;66.60
51719;DHT22;37795;53.236;5.704;2023-03-04T14:29:27;8.20;66.60
51719;DHT22;37795;53.236;5.704;2023-03-04T14:31:54;8.20;67.20
51719;DHT22;37795;53.236;5.704;2023-03-04T14:34:25;8.30;67.30
51719;DHT22;37795;53.236;5.704;2023-03-04T14:36:53;8.10;67.00
51719;DHT22;37795;53.236;5.704;2023-03-04T14:39:20;8.20;67.70
51719;DHT22;37795;53.236;5.704;2023-03-04T14:41:47;8.30;67.10
51719;DHT22;37795;53.236;5.704;2023-03-04T14:44:29;8.20;67.40
51719;DHT22;37795;53.236;5.704;2023-03-04T14:47:08;8.50;67.30
51719;DHT22;37795;53.236;5.704;2023-03-04T14:49:36;8.40;66.80
51719;DHT22;37795;53.236;5.704;2023-03-04T14:52:02;8.60;66.50
51719;DHT22;37795;53.236;5.704;2023-03-04T14:54:38;8.80;65.60
51719;DHT22;37795;53.236;5.704;2023-03-04T14:57:21;9.10;65.50
51719;DHT22;37795;53.236;5.704;2023-03-04T14:59:48;9.10;64.60
51719;DHT22;37795;53.236;5.704;2023-03-04T15:07:52;8.10;67.10
51719;DHT22;37795;53.236;5.704;2023-03-04T15:10:23;7.90;68.20
51719;DHT22;37795;53.236;5.704;2023-03-04T15:12:52;7.80;69.40
51719;DHT22;37795;53.236;5.704;2023-03-04T15:23:46;7.60;70.60
51719;DHT22;37795;53.236;5.704;2023-03-04T15:26:12;7.60;70.80
51719;DHT22;37795;53.236;5.704;2023-03-04T15:28:40;7.90;70.80
51719;DHT22;37795;53.236;5.704;2023-03-04T15:31:17;8.00;69.90
51719;DHT22;37795;53.236;5.704;2023-03-04T15:33:43;8.20;70.30
51719;DHT22;37795;53.236;5.704;2023-03-04T15:36:13;8.30;69.30
51719;DHT22;37795;53.236;5.704;2023-03-04T15:38:45;8.10;68.50
51719;DHT22;37795;53.236;5.704;2023-03-04T15:41:17;8.10;68.30
51719;DHT22;37795;53.236;5.704;2023-03-04T15:43:43;8.00;68.20
51719;DHT22;37795;53.236;5.704;2023-03-04T15:46:10;7.90;68.10
51719;DHT22;37795;53.236;5.704;2023-03-04T15:48:36;7.80;68.40
51719;DHT22;37795;53.236;5.704;2023-03-04T15:51:03;7.70;68.50
51719;DHT22;37795;53.236;5.704;2023-03-04T15:53:49;7.60;68.70
51719;DHT22;37795;53.236;5.704;2023-03-04T15:56:28;7.60;68.80
51719;DHT22;37795;53.236;5.704;2023-03-04T15:59:05;7.50;69.10
51719;DHT22;37795;53.236;5.704;2023-03-04T16:01:31;7.60;69.10
51719;DHT22;37795;53.236;5.704;2023-03-04T16:03:57;7.60;68.90
51719;DHT22;37795;53.236;5.704;2023-03-04T16:06:25;7.90;67.80
51719;DHT22;37795;53.236;5.704;2023-03-04T16:08:52;7.80;68.20
51719;DHT22;37795;53.236;5.704;2023-03-04T16:11:20;7.70;68.40
51719;DHT22;37795;53.236;5.704;2023-03-04T16:13:47;7.70;68.40
51719;DHT22;37795;53.236;5.704;2023-03-04T16:16:13;7.60;68.30
51719;DHT22;37795;53.236;5.704;2023-03-04T16:18:40;7.60;68.10
51719;DHT22;37795;53.236;5.704;2023-03-04T16:21:08;7.60;68.30
51719;DHT22;37795;53.236;5.704;2023-03-04T16:23:41;7.50;68.30
51719;DHT22;37795;53.236;5.704;2023-03-04T16:26:18;7.50;68.50
51719;DHT22;37795;53.236;5.704;2023-03-04T16:28:45;7.40;68.40
51719;DHT22;37795;53.236;5.704;2023-03-04T16:31:12;7.30;68.60
51719;DHT22;37795;53.236;5.704;2023-03-04T16:33:38;7.20;68.80
51719;DHT22;37795;53.236;5.704;2023-03-04T16:36:32;7.00;69.20
51719;DHT22;37795;53.236;5.704;2023-03-04T16:39:01;6.90;69.80
51719;DHT22;37795;53.236;5.704;2023-03-04T16:41:28;6.70;70.40
51719;DHT22;37795;53.236;5.704;2023-03-04T16:43:58;6.50;70.50
51719;DHT22;37795;53.236;5.704;2023-03-04T16:46:24;6.40;70.80
51719;DHT22;37795;53.236;5.704;2023-03-04T16:48:50;6.40;71.70
51719;DHT22;37795;53.236;5.704;2023-03-04T16:51:18;6.50;72.20
51719;DHT22;37795;53.236;5.704;2023-03-04T16:53:47;6.50;72.40
51719;DHT22;37795;53.236;5.704;2023-03-04T16:56:15;6.50;72.80
51719;DHT22;37795;53.236;5.704;2023-03-04T16:58:42;6.50;72.90
51719;DHT22;37795;53.236;5.704;2023-03-04T17:01:20;6.40;73.00
51719;DHT22;37795;53.236;5.704;2023-03-04T17:03:46;6.50;73.10
51719;DHT22;37795;53.236;5.704;2023-03-04T17:06:13;6.50;73.00
51719;DHT22;37795;53.236;5.704;2023-03-04T17:08:39;6.50;72.90
51719;DHT22;37795;53.236;5.704;2023-03-04T17:11:05;6.50;72.80
51719;DHT22;37795;53.236;5.704;2023-03-04T17:13:31;6.40;72.90
51719;DHT22;37795;53.236;5.704;2023-03-04T17:16:01;6.40;73.10
51719;DHT22;37795;53.236;5.704;2023-03-04T17:18:26;6.40;73.20
51719;DHT22;37795;53.236;5.704;2023-03-04T17:20:53;6.40;73.50
51719;DHT22;37795;53.236;5.704;2023-03-04T17:23:18;6.40;73.60
51719;DHT22;37795;53.236;5.704;2023-03-04T17:25:44;6.40;74.30
51719;DHT22;37795;53.236;5.704;2023-03-04T17:28:10;6.40;74.20
51719;DHT22;37795;53.236;5.704;2023-03-04T17:30:35;6.40;74.20
51719;DHT22;37795;53.236;5.704;2023-03-04T17:33:02;6.40;74.10
51719;DHT22;37795;53.236;5.704;2023-03-04T17:35:28;6.40;73.50
51719;DHT22;37795;53.236;5.704;2023-03-04T17:37:53;6.30;73.70
51719;DHT22;37795;53.236;5.704;2023-03-04T17:40:19;6.30;73.80
51719;DHT22;37795;53.236;5.704;2023-03-04T17:42:45;6.20;73.80
51719;DHT22;37795;53.236;5.704;2023-03-04T17:45:10;6.20;73.80
51719;DHT22;37795;53.236;5.704;2023-03-04T17:47:36;6.20;73.80
51719;DHT22;37795;53.236;5.704;2023-03-04T17:50:03;6.20;73.80
51719;DHT22;37795;53.236;5.704;2023-03-04T17:52:31;6.20;73.90
51719;DHT22;37795;53.236;5.704;2023-03-04T17:54:57;6.20;73.90
51719;DHT22;37795;53.236;5.704;2023-03-04T17:57:22;6.20;74.20